This is the latest recevied weather packets stored in our database for station/object MB7UCW-13. If no packets are shown the sender has not sent any weather packets the latest 10 day(s).
| Time | Temp. | Humidity | Pressure | Rain* | Wind** | Luminosity | Snow |
|---|---|---|---|---|---|---|---|
| 1778034603 | 8.33° C | 76% | 1015.3 hPa | 0 mm | - | 0 W/m² | - |
| 1778033703 | 8.33° C | 75% | 1015.3 hPa | 0 mm | - | 0 W/m² | - |
| 1778030103 | 8.89° C | 76% | 1015.4 hPa | 0 mm | - | 0 W/m² | - |
| 1778020203 | 10° C | 76% | 1015.5 hPa | 0 mm | - | 0 W/m² | - |
| 1778013024 | 10.56° C | 79% | 1014.9 hPa | 0 mm | - | 0 W/m² | - |
| 1778004003 | 12.78° C | 71% | 1014.4 hPa | 0 mm | - | 93 W/m² | - |
| 1778003103 | 12.78° C | 72% | 1014.3 hPa | 0 mm | - | 132 W/m² | - |
| 1777999524 | 12.78° C | 74% | 1014.5 hPa | 0 mm | - | 213 W/m² | - |
| 1777989624 | 12.78° C | 69% | 1014.8 hPa | 0 mm | - | 221 W/m² | - |
| 1777988703 | 12.78° C | 70% | 1014.7 hPa | 0 mm | - | 306 W/m² | - |
| 1777983303 | 12.22° C | 72% | 1014.8 hPa | 0 mm | - | 318 W/m² | - |
| 1777982403 | 11.67° C | 71% | 1014.8 hPa | 0 mm | - | 304 W/m² | - |
| 1777977903 | 11.67° C | 74% | 1015 hPa | 0 mm | - | 269 W/m² | - |
| 1777977003 | 11.67° C | 75% | 1015.2 hPa | 0 mm | - | 178 W/m² | - |
| 1777968924 | 11.67° C | 79% | 1015.3 hPa | 0 mm | - | 257 W/m² | - |
| 1777964403 | 8.89° C | 94% | 1015.3 hPa | 0 mm | - | 323 W/m² | - |
| 1777959002 | 5° C | 94% | 1015.3 hPa | 0 mm | - | 62 W/m² | - |
| 1777957202 | 4.44° C | 93% | 1015.2 hPa | 0 mm | - | 14 W/m² | - |
| 1777952702 | 5° C | 93% | 1014.9 hPa | 0 mm | - | 0 W/m² | - |
| 1777950002 | 5.56° C | 93% | 1014.9 hPa | 0 mm | - | 0 W/m² | - |
| 1777945523 | 6.67° C | 92% | 1015.4 hPa | 0 mm | - | 0 W/m² | - |
| 1777939203 | 7.78° C | 92% | 1016.1 hPa | 0 mm | - | 0 W/m² | - |
| 1777933802 | 8.33° C | 90% | 1016.3 hPa | 0 mm | - | 0 W/m² | - |
| 1777926623 | 11.11° C | 85% | 1016.3 hPa | 0 mm | - | 0 W/m² | - |
| 1777921202 | 13.33° C | 82% | 1015.6 hPa | 0 mm | - | 25 W/m² | - |
* Rain latest hour (hover to see other rain measurements)
** Current wind speed in m/s (hover to see current wind gust speed)